createdAt,value
2023-05-17T00:00:28.988Z,6.60
2023-05-17T00:02:55.800Z,6.50
2023-05-17T00:05:22.737Z,6.40
2023-05-17T00:07:49.597Z,6.30
2023-05-17T00:10:16.445Z,6.30
2023-05-17T00:12:43.239Z,6.20
2023-05-17T00:15:10.662Z,6.20
2023-05-17T00:17:38.069Z,6.20
2023-05-17T00:20:06.167Z,6.20
2023-05-17T00:22:32.941Z,6.20
2023-05-17T00:24:59.784Z,6.20
2023-05-17T00:27:26.571Z,6.20
2023-05-17T00:29:53.369Z,6.10
2023-05-17T00:32:20.168Z,6.10
2023-05-17T00:34:46.975Z,6.00
2023-05-17T00:37:13.770Z,5.90
2023-05-17T00:39:43.148Z,5.90
2023-05-17T00:42:11.526Z,5.80
2023-05-17T00:44:38.392Z,5.80
2023-05-17T00:47:05.451Z,5.80
2023-05-17T00:49:32.632Z,5.80
2023-05-17T00:52:00.402Z,5.70
2023-05-17T00:54:27.634Z,5.70
2023-05-17T00:56:57.030Z,5.70
2023-05-17T00:59:24.570Z,5.70
2023-05-17T01:01:52.426Z,5.60
2023-05-17T01:04:19.333Z,5.60
2023-05-17T01:06:46.265Z,5.60
2023-05-17T01:09:13.688Z,5.60
2023-05-17T01:12:03.778Z,5.60
2023-05-17T01:15:17.907Z,5.50
2023-05-17T01:17:57.610Z,5.40
2023-05-17T01:20:45.395Z,5.30
2023-05-17T01:23:53.459Z,5.20
2023-05-17T01:26:37.135Z,5.20
2023-05-17T01:29:07.826Z,5.10
2023-05-17T01:31:39.187Z,5.00
2023-05-17T01:34:09.479Z,5.00
2023-05-17T01:36:37.193Z,5.00
2023-05-17T01:39:04.054Z,5.00
2023-05-17T01:41:40.848Z,4.90
2023-05-17T01:44:33.128Z,4.80
2023-05-17T01:47:16.253Z,4.80
2023-05-17T01:49:51.773Z,4.80
2023-05-17T01:52:27.163Z,4.80
2023-05-17T01:55:07.591Z,4.70
2023-05-17T01:57:37.874Z,4.70
2023-05-17T02:00:09.622Z,4.80
2023-05-17T02:02:37.026Z,4.80
2023-05-17T02:05:04.255Z,4.80
2023-05-17T02:07:31.229Z,4.80
2023-05-17T02:09:58.032Z,4.80
2023-05-17T02:12:25.383Z,4.80
2023-05-17T02:14:52.191Z,4.80
2023-05-17T02:17:19.110Z,4.80
2023-05-17T02:19:48.786Z,4.70
2023-05-17T02:22:15.912Z,5.00
2023-05-17T02:24:42.676Z,4.70
2023-05-17T02:27:09.437Z,4.60
2023-05-17T02:29:36.670Z,4.50
2023-05-17T02:32:03.754Z,4.50
2023-05-17T02:34:30.547Z,4.40
2023-05-17T02:36:57.308Z,4.40
2023-05-17T02:39:24.073Z,4.30
2023-05-17T02:41:50.924Z,4.20
2023-05-17T02:44:17.712Z,4.20
2023-05-17T02:46:44.505Z,4.10
2023-05-17T02:49:17.492Z,4.10
2023-05-17T02:51:44.277Z,4.00
2023-05-17T02:54:11.200Z,3.90
2023-05-17T02:56:37.975Z,3.80
2023-05-17T02:59:04.809Z,3.70
2023-05-17T03:01:31.581Z,3.70
2023-05-17T03:03:58.535Z,3.60
2023-05-17T03:06:25.619Z,3.60
2023-05-17T03:08:52.416Z,3.50
2023-05-17T03:11:19.178Z,3.50
2023-05-17T03:13:51.872Z,3.50
2023-05-17T03:16:19.148Z,3.50
2023-05-17T03:18:46.051Z,3.50
2023-05-17T03:21:12.945Z,3.40
2023-05-17T03:23:39.704Z,3.40
2023-05-17T03:26:06.844Z,3.40
2023-05-17T03:28:33.670Z,3.40
2023-05-17T03:31:00.638Z,3.50
2023-05-17T03:33:27.497Z,3.50
2023-05-17T03:35:54.298Z,3.50
2023-05-17T03:38:21.125Z,3.50
2023-05-17T03:40:47.991Z,3.50
2023-05-17T03:43:14.868Z,3.50
2023-05-17T03:45:41.669Z,3.60
2023-05-17T03:48:08.491Z,3.60
2023-05-17T03:50:35.475Z,3.60
2023-05-17T03:53:02.353Z,3.70
2023-05-17T03:55:29.315Z,3.70
2023-05-17T03:57:56.169Z,3.70
2023-05-17T04:00:23.845Z,3.70
2023-05-17T04:02:52.045Z,3.70
2023-05-17T04:05:19.920Z,3.70
2023-05-17T04:07:46.724Z,3.80
2023-05-17T04:10:13.598Z,3.90
2023-05-17T04:12:40.411Z,3.90
2023-05-17T04:15:08.142Z,4.00
2023-05-17T04:17:34.952Z,4.00
2023-05-17T04:20:02.604Z,4.10
2023-05-17T04:22:29.351Z,4.10
2023-05-17T04:24:56.094Z,4.20
2023-05-17T04:27:23.136Z,4.20
2023-05-17T04:29:49.910Z,4.30
2023-05-17T04:32:18.003Z,4.40
2023-05-17T04:34:44.810Z,4.60
2023-05-17T04:37:11.660Z,4.70
2023-05-17T04:39:38.496Z,4.80
2023-05-17T04:42:05.754Z,5.00
2023-05-17T04:44:32.558Z,5.10
2023-05-17T04:46:59.317Z,5.40
2023-05-17T04:49:26.547Z,5.60
2023-05-17T04:51:53.303Z,5.70
2023-05-17T04:54:20.154Z,6.00
2023-05-17T04:56:47.043Z,6.20
2023-05-17T04:59:16.552Z,6.30
2023-05-17T05:01:43.323Z,6.50
2023-05-17T05:04:10.251Z,6.70
2023-05-17T05:06:37.123Z,6.80
2023-05-17T05:09:04.198Z,7.00
2023-05-17T05:11:31.981Z,7.10
2023-05-17T05:13:58.802Z,7.20
2023-05-17T05:16:26.081Z,7.30
2023-05-17T05:18:53.055Z,7.40
2023-05-17T05:21:20.150Z,7.50
2023-05-17T05:23:46.893Z,7.60
2023-05-17T05:26:13.630Z,7.70
2023-05-17T05:28:40.445Z,7.70
2023-05-17T05:31:07.211Z,7.70
2023-05-17T05:33:34.196Z,7.80
2023-05-17T05:36:01.022Z,7.90
2023-05-17T05:38:27.847Z,7.90
2023-05-17T05:40:54.688Z,8.00
2023-05-17T05:43:21.440Z,8.10
2023-05-17T05:45:48.216Z,8.20
2023-05-17T05:48:15.367Z,8.20
2023-05-17T05:50:44.215Z,8.30
2023-05-17T05:53:18.925Z,8.40
2023-05-17T05:55:46.767Z,8.50
2023-05-17T05:58:13.570Z,8.60
2023-05-17T06:00:40.431Z,8.70
2023-05-17T06:03:07.358Z,8.80
2023-05-17T06:05:34.271Z,8.90
2023-05-17T06:08:01.095Z,9.00
2023-05-17T06:10:28.132Z,9.10
2023-05-17T06:12:55.049Z,9.20
2023-05-17T06:15:21.808Z,9.30
2023-05-17T06:17:48.783Z,9.40
2023-05-17T06:20:16.442Z,9.50
2023-05-17T06:22:44.480Z,9.60
2023-05-17T06:25:11.806Z,9.60
2023-05-17T06:27:38.699Z,9.70
2023-05-17T06:30:07.552Z,9.80
2023-05-17T06:32:35.223Z,9.80
2023-05-17T06:35:02.455Z,9.90
2023-05-17T06:37:29.412Z,9.90
2023-05-17T06:40:10.529Z,10.00
2023-05-17T06:42:43.092Z,10.10
2023-05-17T06:45:10.870Z,10.20
2023-05-17T06:47:37.822Z,10.20
2023-05-17T06:50:05.530Z,10.30
2023-05-17T06:52:32.460Z,10.40
2023-05-17T06:54:59.224Z,10.50
2023-05-17T06:57:26.187Z,10.50
2023-05-17T06:59:53.002Z,10.60
2023-05-17T07:02:20.040Z,10.50
2023-05-17T07:04:46.897Z,10.60
2023-05-17T07:07:13.754Z,10.70
2023-05-17T07:09:41.273Z,10.70
2023-05-17T07:12:08.265Z,10.80
2023-05-17T07:14:35.425Z,10.70
2023-05-17T07:17:02.203Z,10.80
2023-05-17T07:19:29.024Z,10.80
2023-05-17T07:21:55.919Z,10.80
2023-05-17T07:24:22.740Z,11.00
2023-05-17T07:26:50.872Z,11.10
2023-05-17T07:29:19.048Z,11.20
2023-05-17T07:31:45.835Z,11.40
2023-05-17T07:34:13.660Z,11.30
2023-05-17T07:36:40.578Z,11.30
2023-05-17T07:39:08.693Z,11.30
2023-05-17T07:41:36.371Z,11.50
2023-05-17T07:44:03.257Z,11.50
2023-05-17T07:46:30.100Z,11.70
2023-05-17T07:48:58.715Z,11.60
2023-05-17T07:51:26.238Z,11.60
2023-05-17T07:53:53.095Z,11.60
2023-05-17T07:56:19.936Z,11.80
2023-05-17T07:58:46.761Z,11.90
2023-05-17T08:01:13.614Z,11.90
2023-05-17T08:03:47.547Z,12.00
2023-05-17T08:06:16.443Z,12.10
2023-05-17T08:08:44.510Z,12.00
2023-05-17T08:11:12.703Z,12.20
2023-05-17T08:13:39.508Z,12.40
2023-05-17T08:16:13.716Z,12.60
2023-05-17T08:18:43.759Z,12.60
2023-05-17T08:21:11.366Z,12.50
2023-05-17T08:23:39.313Z,12.40
2023-05-17T08:26:06.600Z,12.40
2023-05-17T08:28:33.750Z,12.30
2023-05-17T08:31:00.588Z,12.20
2023-05-17T08:33:27.512Z,12.10
2023-05-17T08:35:55.304Z,12.10
2023-05-17T08:38:22.378Z,12.30
2023-05-17T08:40:56.926Z,12.50
2023-05-17T08:43:26.830Z,12.40
2023-05-17T08:45:57.369Z,12.40
2023-05-17T08:48:24.727Z,12.60
2023-05-17T08:50:54.981Z,12.80
2023-05-17T08:53:22.672Z,12.80
2023-05-17T08:55:53.516Z,12.70
2023-05-17T08:58:27.465Z,12.60
2023-05-17T09:00:56.305Z,12.40
2023-05-17T09:03:25.325Z,12.30
2023-05-17T09:05:53.470Z,12.20
2023-05-17T09:08:23.166Z,12.20
2023-05-17T09:10:50.605Z,12.20
2023-05-17T09:13:17.535Z,12.20
2023-05-17T09:15:47.759Z,12.10
2023-05-17T09:18:17.052Z,12.10
2023-05-17T09:20:51.615Z,12.20
2023-05-17T09:23:21.320Z,12.30
2023-05-17T09:25:49.808Z,12.50
2023-05-17T09:28:22.065Z,12.60
2023-05-17T09:30:49.858Z,12.70
2023-05-17T09:33:21.360Z,12.70
2023-05-17T09:35:48.140Z,12.60
2023-05-17T09:38:14.917Z,12.50
2023-05-17T09:40:47.790Z,12.60
2023-05-17T09:43:22.936Z,12.50
2023-05-17T09:45:58.431Z,12.50
2023-05-17T09:48:28.074Z,12.40
2023-05-17T09:50:55.098Z,12.40
2023-05-17T09:53:30.308Z,12.30
2023-05-17T09:56:00.683Z,12.30
2023-05-17T09:58:29.061Z,12.30
2023-05-17T10:01:01.759Z,12.30
2023-05-17T10:03:36.749Z,12.20
2023-05-17T10:06:08.790Z,12.30
2023-05-17T10:08:38.482Z,12.30
2023-05-17T10:11:11.013Z,12.30
2023-05-17T10:13:47.328Z,12.30
2023-05-17T10:16:14.799Z,12.40
2023-05-17T10:18:41.940Z,12.40
2023-05-17T10:21:10.610Z,12.50
2023-05-17T10:23:39.072Z,12.50
2023-05-17T10:26:06.582Z,12.50
2023-05-17T10:28:34.888Z,12.60
2023-05-17T10:31:04.174Z,12.50
2023-05-17T10:33:33.250Z,12.40
2023-05-17T10:36:06.246Z,12.40
2023-05-17T10:38:41.757Z,12.40
2023-05-17T10:41:14.074Z,12.40
2023-05-17T10:43:43.564Z,12.40
2023-05-17T10:46:18.475Z,12.40
2023-05-17T10:48:48.882Z,12.40
2023-05-17T10:51:18.770Z,12.40
2023-05-17T10:54:18.365Z,12.40
2023-05-17T10:56:50.450Z,12.50
2023-05-17T10:59:26.811Z,12.40
2023-05-17T11:02:05.266Z,12.30
2023-05-17T11:04:33.636Z,12.30
2023-05-17T11:07:19.169Z,12.30
2023-05-17T11:10:03.593Z,12.20
2023-05-17T11:12:47.882Z,12.30
2023-05-17T11:15:16.818Z,12.10
2023-05-17T11:17:43.906Z,12.10
2023-05-17T11:20:32.925Z,12.00
2023-05-17T11:23:06.901Z,12.00
2023-05-17T11:25:39.468Z,11.90
2023-05-17T11:28:18.646Z,11.90
2023-05-17T11:30:51.483Z,12.00
2023-05-17T11:33:33.123Z,12.00
2023-05-17T11:36:07.279Z,12.00
2023-05-17T11:38:34.663Z,12.00
2023-05-17T11:43:49.733Z,12.10
2023-05-17T11:46:22.664Z,12.10
2023-05-17T11:48:54.008Z,12.20
2023-05-17T11:51:24.663Z,12.20
2023-05-17T11:53:55.371Z,12.10
2023-05-17T11:56:35.555Z,12.10
2023-05-17T11:59:10.353Z,12.00
2023-05-17T12:01:48.743Z,12.00
2023-05-17T12:04:25.663Z,11.90
2023-05-17T12:06:56.463Z,11.90
2023-05-17T12:09:24.186Z,11.90
2023-05-17T12:11:51.044Z,11.90
2023-05-17T12:14:18.521Z,12.00
2023-05-17T12:16:50.692Z,12.10
2023-05-17T12:19:23.612Z,12.10
2023-05-17T12:21:51.397Z,12.20
2023-05-17T12:24:18.592Z,12.30
2023-05-17T12:26:47.286Z,12.40
2023-05-17T12:29:19.434Z,12.50
2023-05-17T12:31:50.564Z,12.60
2023-05-17T12:34:18.469Z,12.70
2023-05-17T12:36:45.675Z,12.80
2023-05-17T12:39:14.449Z,12.90
2023-05-17T12:41:42.840Z,12.90
2023-05-17T12:44:15.583Z,12.90
2023-05-17T12:46:43.928Z,12.90
2023-05-17T12:49:12.158Z,12.90
2023-05-17T12:51:46.970Z,13.00
2023-05-17T12:54:23.668Z,13.00
2023-05-17T12:56:50.465Z,12.90
2023-05-17T12:59:20.737Z,12.90
2023-05-17T13:01:53.277Z,12.90
2023-05-17T13:04:21.398Z,12.90
2023-05-17T13:06:54.568Z,12.90
2023-05-17T13:09:24.064Z,12.90
2023-05-17T13:11:57.937Z,12.80
2023-05-17T13:14:47.406Z,12.90
2023-05-17T13:17:40.365Z,12.90
2023-05-17T13:20:10.559Z,13.00
2023-05-17T13:22:45.964Z,13.10
2023-05-17T13:25:14.384Z,13.10
2023-05-17T13:27:46.596Z,13.00
2023-05-17T13:30:13.852Z,13.00
2023-05-17T13:32:40.816Z,13.00
2023-05-17T13:35:08.059Z,13.00
2023-05-17T13:37:35.995Z,13.00
2023-05-17T13:40:07.160Z,13.00
2023-05-17T13:42:34.448Z,13.00
2023-05-17T13:45:03.992Z,13.10
2023-05-17T13:47:32.042Z,13.10
2023-05-17T13:50:00.892Z,13.10
2023-05-17T13:52:28.122Z,13.10
2023-05-17T13:54:54.998Z,13.30
2023-05-17T13:57:21.912Z,13.30
2023-05-17T13:59:48.750Z,13.40
2023-05-17T14:02:15.855Z,13.50
2023-05-17T14:04:42.719Z,13.50
2023-05-17T14:07:09.524Z,13.70
2023-05-17T14:09:36.899Z,13.90
2023-05-17T14:12:04.079Z,14.10
2023-05-17T14:14:31.746Z,14.30
2023-05-17T14:16:59.012Z,14.40
2023-05-17T14:19:26.008Z,14.30
2023-05-17T14:21:52.973Z,14.20
2023-05-17T14:24:19.954Z,14.10
2023-05-17T14:26:46.813Z,14.00
2023-05-17T14:29:13.644Z,13.80
2023-05-17T14:31:41.471Z,13.70
2023-05-17T14:34:08.317Z,13.70
2023-05-17T14:36:36.369Z,13.70
2023-05-17T14:39:04.282Z,13.80
2023-05-17T14:41:31.349Z,13.90
2023-05-17T14:43:58.221Z,14.00
2023-05-17T14:46:25.018Z,14.00
2023-05-17T14:48:52.318Z,14.30
2023-05-17T14:51:19.748Z,14.70
2023-05-17T14:53:46.549Z,15.10
2023-05-17T14:56:15.104Z,15.40
2023-05-17T14:58:42.223Z,15.40
2023-05-17T15:01:09.172Z,15.20
2023-05-17T15:03:36.156Z,15.10
2023-05-17T15:06:06.867Z,14.80
2023-05-17T15:08:35.133Z,14.80
2023-05-17T15:11:02.105Z,15.00
2023-05-17T15:13:28.936Z,15.10
2023-05-17T15:15:55.766Z,15.10
2023-05-17T15:18:22.543Z,15.00
2023-05-17T15:20:49.502Z,14.80
2023-05-17T15:23:16.452Z,14.50
2023-05-17T15:25:43.231Z,14.30
2023-05-17T15:28:10.045Z,14.20
2023-05-17T15:30:36.937Z,14.00
2023-05-17T15:33:04.145Z,14.00
2023-05-17T15:35:31.287Z,14.00
2023-05-17T15:37:59.620Z,14.00
2023-05-17T15:40:32.472Z,14.10
2023-05-17T15:43:00.352Z,14.10
2023-05-17T15:45:27.269Z,14.20
2023-05-17T15:47:56.491Z,14.30
2023-05-17T15:50:23.294Z,14.30
2023-05-17T15:52:50.074Z,14.40
2023-05-17T15:55:17.087Z,14.50
2023-05-17T15:57:43.912Z,14.60
2023-05-17T16:00:11.702Z,14.70
2023-05-17T16:02:38.542Z,14.70
2023-05-17T16:05:07.205Z,14.60
2023-05-17T16:07:33.969Z,14.60
2023-05-17T16:10:00.775Z,14.50
2023-05-17T16:12:27.654Z,14.50
2023-05-17T16:14:54.415Z,14.50
2023-05-17T16:17:21.317Z,14.60
2023-05-17T16:19:48.108Z,14.60
2023-05-17T16:22:14.963Z,14.60
2023-05-17T16:24:41.916Z,14.70
2023-05-17T16:27:08.707Z,14.70
2023-05-17T16:29:39.759Z,14.90
2023-05-17T16:32:08.032Z,15.10
2023-05-17T16:34:35.032Z,15.20
2023-05-17T16:37:02.411Z,15.10
2023-05-17T16:39:29.219Z,15.00
2023-05-17T16:41:56.110Z,14.90
2023-05-17T16:44:22.907Z,14.70
2023-05-17T16:46:50.479Z,14.50
2023-05-17T16:49:17.405Z,14.40
2023-05-17T16:51:45.346Z,14.30
2023-05-17T16:54:12.314Z,14.30
2023-05-17T16:56:39.268Z,14.20
2023-05-17T16:59:06.062Z,14.20
2023-05-17T17:01:33.128Z,14.10
2023-05-17T17:04:00.257Z,14.10
2023-05-17T17:06:27.221Z,14.10
2023-05-17T17:08:53.991Z,14.00
2023-05-17T17:11:21.798Z,13.90
2023-05-17T17:13:49.383Z,14.00
2023-05-17T17:16:16.164Z,14.00
2023-05-17T17:18:43.112Z,13.90
2023-05-17T17:21:10.585Z,13.90
2023-05-17T17:23:37.709Z,13.90
2023-05-17T17:26:04.664Z,13.80
2023-05-17T17:28:31.441Z,13.70
2023-05-17T17:30:58.436Z,13.60
2023-05-17T17:33:25.336Z,13.60
2023-05-17T17:35:52.733Z,13.50
2023-05-17T17:38:19.540Z,13.50
2023-05-17T17:40:46.333Z,13.40
2023-05-17T17:43:13.188Z,13.40
2023-05-17T17:45:40.035Z,13.40
2023-05-17T17:48:07.010Z,13.40
2023-05-17T17:50:34.050Z,13.40
2023-05-17T17:53:01.223Z,13.40
2023-05-17T17:55:28.082Z,13.30
2023-05-17T17:57:54.903Z,13.30
2023-05-17T18:00:22.940Z,13.20
2023-05-17T18:02:49.761Z,13.10
2023-05-17T18:05:16.604Z,13.10
2023-05-17T18:07:43.422Z,13.10
2023-05-17T18:10:10.680Z,13.00
2023-05-17T18:12:37.451Z,12.90
2023-05-17T18:15:05.491Z,12.90
2023-05-17T18:17:32.301Z,12.80
2023-05-17T18:19:59.250Z,12.70
2023-05-17T18:22:26.099Z,12.60
2023-05-17T18:24:52.918Z,12.60
2023-05-17T18:27:20.074Z,12.50
2023-05-17T18:29:46.884Z,12.40
2023-05-17T18:32:13.747Z,12.30
2023-05-17T18:34:40.660Z,12.20
2023-05-17T18:37:07.596Z,12.10
2023-05-17T18:39:34.519Z,12.00
2023-05-17T18:42:01.460Z,11.90
2023-05-17T18:44:28.309Z,11.80
2023-05-17T18:46:56.808Z,11.70
2023-05-17T18:49:23.739Z,11.60
2023-05-17T18:51:50.611Z,11.50
2023-05-17T18:54:17.377Z,11.40
2023-05-17T18:56:44.273Z,11.40
2023-05-17T18:59:11.166Z,11.30
2023-05-17T19:01:38.410Z,11.20
2023-05-17T19:04:05.846Z,11.10
2023-05-17T19:06:32.792Z,11.10
2023-05-17T19:08:59.773Z,11.00
2023-05-17T19:11:28.596Z,10.90
2023-05-17T19:13:56.082Z,10.70
2023-05-17T19:16:22.899Z,10.60
2023-05-17T19:18:50.206Z,10.60
2023-05-17T19:21:17.199Z,10.50
2023-05-17T19:23:44.092Z,10.40
2023-05-17T19:26:11.002Z,10.30
2023-05-17T19:28:37.954Z,10.30
2023-05-17T19:31:04.921Z,10.20
2023-05-17T19:33:34.562Z,10.10
2023-05-17T19:36:01.558Z,10.00
2023-05-17T19:38:28.441Z,9.90
2023-05-17T19:40:55.203Z,9.90
2023-05-17T19:43:21.977Z,9.80
2023-05-17T19:45:48.765Z,9.80
2023-05-17T19:48:15.903Z,9.70
2023-05-17T19:50:42.839Z,9.70
2023-05-17T19:53:09.825Z,9.70
2023-05-17T19:55:36.635Z,9.60
2023-05-17T19:58:03.668Z,9.60
2023-05-17T20:00:32.578Z,9.60
2023-05-17T20:02:59.681Z,9.60
2023-05-17T20:05:27.179Z,9.60
2023-05-17T20:07:55.164Z,9.50
2023-05-17T20:10:22.277Z,9.50
2023-05-17T20:12:49.086Z,9.50
2023-05-17T20:15:16.182Z,9.50
2023-05-17T20:17:43.007Z,9.50
2023-05-17T20:20:10.103Z,9.40
2023-05-17T20:22:37.679Z,9.40
2023-05-17T20:25:04.850Z,9.40
2023-05-17T20:27:31.652Z,9.30
2023-05-17T20:29:58.472Z,9.30
2023-05-17T20:32:25.487Z,9.30
2023-05-17T20:34:52.402Z,9.30
2023-05-17T20:37:19.171Z,9.30
2023-05-17T20:39:46.260Z,9.30
2023-05-17T20:42:18.059Z,9.30
2023-05-17T20:44:45.352Z,9.30
2023-05-17T20:47:12.194Z,9.20
2023-05-17T20:49:38.959Z,9.20
2023-05-17T20:52:06.387Z,9.30
2023-05-17T20:54:33.287Z,9.30
2023-05-17T20:57:00.481Z,9.30
2023-05-17T20:59:27.284Z,9.30
2023-05-17T21:01:54.112Z,9.40
2023-05-17T21:04:21.144Z,9.40
2023-05-17T21:06:47.947Z,9.40
2023-05-17T21:09:14.724Z,9.40
2023-05-17T21:11:41.500Z,9.40
2023-05-17T21:14:08.476Z,9.30
2023-05-17T21:16:35.409Z,9.30
2023-05-17T21:19:02.573Z,9.30
2023-05-17T21:21:29.465Z,9.20
2023-05-17T21:23:56.274Z,9.20
2023-05-17T21:26:23.140Z,9.10
2023-05-17T21:28:49.924Z,9.00
2023-05-17T21:31:16.804Z,9.00
2023-05-17T21:33:43.810Z,8.90
2023-05-17T21:36:10.653Z,8.90
2023-05-17T21:38:37.503Z,8.80
2023-05-17T21:41:04.334Z,8.70
2023-05-17T21:43:31.196Z,8.60
2023-05-17T21:45:57.995Z,8.60
2023-05-17T21:48:24.769Z,8.60
2023-05-17T21:50:51.576Z,8.50
2023-05-17T21:53:18.398Z,8.40
2023-05-17T21:55:56.832Z,8.30
2023-05-17T21:58:28.621Z,8.30
2023-05-17T22:00:55.463Z,8.20
2023-05-17T22:03:22.539Z,8.10
2023-05-17T22:05:49.425Z,8.10
2023-05-17T22:08:16.249Z,8.00
2023-05-17T22:10:43.446Z,8.00
2023-05-17T22:13:12.207Z,8.00
2023-05-17T22:15:39.228Z,7.90
2023-05-17T22:18:06.069Z,7.90
2023-05-17T22:20:33.048Z,7.80
2023-05-17T22:22:59.956Z,7.80
2023-05-17T22:25:26.696Z,7.80
2023-05-17T22:27:53.466Z,7.80
2023-05-17T22:30:20.452Z,7.70
2023-05-17T22:32:47.286Z,7.70
2023-05-17T22:35:14.294Z,7.70
2023-05-17T22:37:42.613Z,7.70
2023-05-17T22:40:10.690Z,7.70
2023-05-17T22:42:37.610Z,7.70
2023-05-17T22:45:04.703Z,7.60
2023-05-17T22:47:31.838Z,7.60
2023-05-17T22:50:00.676Z,7.60
2023-05-17T22:52:27.498Z,7.60
2023-05-17T22:54:54.277Z,7.60
2023-05-17T22:57:21.057Z,7.60
2023-05-17T22:59:47.841Z,7.60
2023-05-17T23:02:14.674Z,7.60
2023-05-17T23:04:41.494Z,7.60
2023-05-17T23:07:09.711Z,7.60
2023-05-17T23:09:40.240Z,7.60
2023-05-17T23:12:08.608Z,7.60
2023-05-17T23:14:36.500Z,7.60
2023-05-17T23:17:04.757Z,7.60
2023-05-17T23:19:33.140Z,7.60
2023-05-17T23:22:03.948Z,7.60
2023-05-17T23:24:30.714Z,7.50
2023-05-17T23:26:57.665Z,7.50
2023-05-17T23:29:25.972Z,7.50
2023-05-17T23:31:53.294Z,7.40
2023-05-17T23:34:20.227Z,7.40
2023-05-17T23:36:47.035Z,7.30
2023-05-17T23:39:13.787Z,7.30
2023-05-17T23:41:40.577Z,7.30
2023-05-17T23:44:07.811Z,7.20
2023-05-17T23:46:34.628Z,7.10
2023-05-17T23:49:02.302Z,7.10
2023-05-17T23:51:29.425Z,7.00
2023-05-17T23:53:56.324Z,6.90
2023-05-17T23:56:23.323Z,6.80
2023-05-17T23:58:50.426Z,6.70
